createdAt,value
2023-03-02T04:17:40.916Z,67.80
2023-03-02T05:18:45.478Z,68.70
2023-03-02T06:53:28.817Z,69.10
2023-03-02T06:55:56.003Z,69.80
2023-03-02T06:58:23.194Z,70.30
2023-03-02T07:00:50.394Z,70.50
2023-03-02T07:03:18.380Z,70.20
2023-03-02T07:05:46.428Z,70.20
2023-03-02T07:08:13.754Z,69.90
2023-03-02T07:10:42.397Z,70.00
2023-03-02T07:13:09.730Z,69.40
2023-03-02T07:15:39.248Z,69.40
2023-03-02T07:18:06.876Z,69.10
2023-03-02T07:20:34.361Z,69.20
2023-03-02T07:23:01.772Z,68.90
2023-03-02T07:25:29.109Z,68.60
2023-03-02T07:27:58.035Z,68.50
2023-03-02T07:30:25.641Z,68.30
2023-03-02T07:32:52.954Z,68.40
2023-03-02T07:35:20.253Z,68.20
2023-03-02T07:37:47.604Z,68.30
2023-03-02T07:40:15.036Z,68.20
2023-03-02T07:42:42.318Z,67.90
2023-03-02T07:45:11.971Z,67.90
2023-03-02T07:47:39.377Z,67.90
2023-03-02T07:50:08.183Z,67.80
2023-03-02T07:52:35.501Z,67.50
2023-03-02T07:55:02.934Z,67.90
2023-03-02T07:57:30.221Z,67.60
2023-03-02T07:59:57.491Z,67.50
2023-03-02T08:02:26.220Z,67.80
2023-03-02T08:04:53.513Z,67.70
2023-03-02T08:07:20.793Z,67.50
2023-03-02T08:09:48.042Z,67.60
2023-03-02T08:12:15.325Z,67.50
2023-03-02T08:14:42.660Z,67.60
2023-03-02T08:17:09.964Z,67.20
2023-03-02T08:19:39.263Z,66.90
2023-03-02T08:22:06.579Z,67.00
2023-03-02T08:24:33.857Z,66.70
2023-03-02T08:27:01.983Z,66.50
2023-03-02T08:29:29.675Z,66.50
2023-03-02T08:31:58.847Z,66.40
2023-03-02T08:34:26.409Z,66.10
2023-03-02T08:36:54.980Z,66.10
2023-03-02T08:39:23.506Z,65.90
2023-03-02T08:41:51.114Z,66.00
2023-03-02T08:44:18.467Z,65.70
2023-03-02T08:46:45.924Z,65.90
2023-03-02T08:49:13.313Z,65.60
2023-03-02T08:51:40.879Z,65.70
2023-03-02T08:54:11.261Z,65.70
2023-03-02T08:56:40.165Z,65.70
2023-03-02T08:59:11.266Z,65.50
2023-03-02T09:01:39.953Z,65.40
2023-03-02T09:04:09.062Z,65.70
2023-03-02T09:06:38.548Z,65.50
2023-03-02T09:09:06.721Z,65.40
2023-03-02T09:11:35.916Z,65.50
2023-03-02T09:14:03.557Z,65.80
2023-03-02T09:16:31.814Z,65.60
2023-03-02T09:18:59.092Z,65.20
2023-03-02T09:21:26.779Z,65.00
2023-03-02T09:23:57.942Z,64.40
2023-03-02T09:26:25.598Z,64.90
2023-03-02T09:28:54.755Z,64.50
2023-03-02T09:31:22.294Z,64.40
2023-03-02T09:33:49.692Z,64.20
2023-03-02T09:36:21.386Z,63.70
2023-03-02T09:38:49.076Z,64.40
2023-03-02T09:41:44.651Z,63.80
2023-03-02T09:44:36.052Z,63.80
2023-03-02T09:47:05.082Z,63.90
2023-03-02T09:49:47.039Z,63.50
2023-03-02T09:52:28.684Z,63.20
2023-03-02T09:54:57.276Z,63.50
2023-03-02T09:57:31.130Z,63.00
2023-03-02T10:00:18.050Z,63.40
2023-03-02T10:02:49.060Z,63.70
2023-03-02T10:05:20.463Z,64.10
2023-03-02T10:07:48.435Z,64.00
2023-03-02T10:10:26.494Z,64.10
2023-03-02T10:13:05.655Z,63.60
2023-03-02T10:15:40.962Z,63.90
2023-03-02T10:18:21.400Z,63.80
2023-03-02T10:20:54.606Z,64.20
2023-03-02T10:23:48.130Z,63.90
2023-03-02T10:26:25.525Z,63.60
2023-03-02T10:29:00.233Z,64.00
2023-03-02T10:31:30.266Z,63.90
2023-03-02T10:33:58.151Z,63.80
2023-03-02T10:36:27.618Z,64.10
2023-03-02T10:38:56.762Z,64.30
2023-03-02T10:41:28.685Z,64.20
2023-03-02T10:43:59.737Z,63.90
2023-03-02T10:46:41.095Z,63.80
2023-03-02T10:49:25.668Z,63.30
2023-03-02T10:52:01.845Z,63.40
2023-03-02T10:54:30.832Z,63.50
2023-03-02T10:57:01.281Z,63.40
2023-03-02T10:59:40.955Z,63.70
2023-03-02T11:02:18.636Z,63.40
2023-03-02T11:04:46.156Z,62.80
2023-03-02T11:07:17.581Z,62.30
2023-03-02T11:10:00.212Z,61.30
2023-03-02T11:12:29.005Z,60.40
2023-03-02T11:15:24.643Z,59.90
2023-03-02T11:17:59.738Z,58.80
2023-03-02T11:20:32.589Z,58.90
2023-03-02T11:23:07.197Z,58.70
2023-03-02T11:25:39.008Z,58.20
2023-03-02T11:28:17.172Z,57.60
2023-03-02T11:30:49.521Z,57.40
2023-03-02T11:33:24.855Z,56.70
2023-03-02T11:35:58.190Z,56.20
2023-03-02T11:38:28.497Z,55.80
2023-03-02T11:41:00.069Z,55.50
2023-03-02T11:43:27.336Z,54.00
2023-03-02T11:45:59.288Z,53.70
2023-03-02T11:48:33.393Z,53.10
2023-03-02T11:51:03.236Z,52.30
2023-03-02T11:53:37.026Z,52.30
2023-03-02T11:56:04.755Z,52.10
2023-03-02T11:58:34.108Z,51.90
2023-03-02T12:01:03.223Z,51.30
2023-03-02T12:03:40.887Z,50.30
2023-03-02T12:06:26.413Z,49.40
2023-03-02T12:09:06.372Z,49.00
2023-03-02T12:11:38.254Z,48.20
2023-03-02T12:14:25.288Z,47.90
2023-03-02T12:17:04.843Z,47.40
2023-03-02T12:19:42.466Z,46.90
2023-03-02T12:22:12.431Z,46.60
2023-03-02T12:24:41.728Z,45.40
2023-03-02T12:27:28.144Z,45.20
2023-03-02T12:30:11.243Z,45.60
2023-03-02T12:32:38.667Z,45.50
2023-03-02T12:35:13.621Z,44.80
2023-03-02T12:37:46.400Z,44.40
2023-03-02T12:40:40.937Z,43.10
2023-03-02T12:43:27.780Z,43.70
2023-03-02T12:46:23.931Z,42.60
2023-03-02T12:48:59.494Z,41.30
2023-03-02T12:51:30.054Z,41.80
2023-03-02T12:54:05.116Z,42.20
2023-03-02T12:56:33.265Z,41.40
2023-03-02T12:59:00.762Z,41.00
2023-03-02T13:01:32.365Z,41.70
2023-03-02T13:04:00.246Z,40.90
2023-03-02T13:06:31.889Z,41.50
2023-03-02T13:09:00.464Z,41.60
2023-03-02T13:11:32.578Z,41.20
2023-03-02T13:14:01.352Z,40.80
2023-03-02T13:16:32.416Z,40.00
2023-03-02T13:19:03.115Z,40.20
2023-03-02T13:21:34.336Z,39.30
2023-03-02T13:24:02.058Z,39.50
2023-03-02T13:26:31.979Z,39.50
2023-03-02T13:29:05.250Z,40.00
2023-03-02T13:31:34.029Z,39.20
2023-03-02T13:34:01.577Z,38.40
2023-03-02T13:36:35.564Z,39.90
2023-03-02T13:39:07.067Z,38.30
2023-03-02T13:41:36.348Z,39.30
2023-03-02T13:44:17.017Z,40.00
2023-03-02T13:46:44.315Z,39.30
2023-03-02T13:49:11.999Z,39.70
2023-03-02T13:51:42.646Z,40.40
2023-03-02T13:54:20.428Z,38.40
2023-03-02T13:56:48.664Z,39.30
2023-03-02T13:59:18.271Z,38.80
2023-03-02T14:01:45.625Z,38.30
2023-03-02T14:04:14.320Z,38.70
2023-03-02T14:06:43.202Z,38.70
2023-03-02T14:09:10.582Z,38.20
2023-03-02T14:11:42.203Z,37.90
2023-03-02T14:14:14.142Z,38.30
2023-03-02T14:16:41.700Z,38.20
2023-03-02T14:19:10.509Z,37.40
2023-03-02T14:21:37.806Z,37.40
2023-03-02T14:24:07.096Z,36.80
2023-03-02T14:26:36.611Z,37.50
2023-03-02T14:29:07.726Z,36.10
2023-03-02T14:31:35.418Z,36.50
2023-03-02T14:34:02.975Z,37.20
2023-03-02T14:36:33.443Z,37.30
2023-03-02T14:39:03.810Z,37.20
2023-03-02T14:41:38.347Z,37.20
2023-03-02T14:44:10.654Z,38.20
2023-03-02T14:46:37.985Z,37.10
2023-03-02T14:49:05.643Z,38.90
2023-03-02T14:51:36.260Z,39.20
2023-03-02T14:54:07.460Z,39.50
2023-03-02T14:56:37.130Z,39.80
2023-03-02T14:59:04.546Z,41.30
2023-03-02T15:01:32.099Z,41.90
2023-03-02T15:03:59.603Z,41.90
2023-03-02T15:06:29.541Z,42.90
2023-03-02T15:08:58.753Z,43.20
2023-03-02T15:11:27.079Z,43.30
2023-03-02T15:13:55.907Z,44.10
2023-03-02T15:16:23.270Z,45.00
2023-03-02T15:18:51.908Z,45.80
2023-03-02T15:21:21.402Z,46.30
2023-03-02T15:23:49.345Z,47.00
2023-03-02T15:26:17.249Z,47.50
2023-03-02T15:28:47.560Z,47.80
2023-03-02T15:31:17.154Z,48.20
2023-03-02T15:33:47.668Z,48.30
2023-03-02T15:36:15.022Z,48.80
2023-03-02T15:38:42.390Z,49.20
2023-03-02T15:41:12.337Z,49.70
2023-03-02T15:43:39.967Z,50.10
2023-03-02T15:46:09.384Z,50.60
2023-03-02T15:48:38.534Z,50.80
2023-03-02T15:51:07.786Z,51.20
2023-03-02T15:53:38.284Z,51.50
2023-03-02T15:56:06.650Z,51.90
2023-03-02T15:58:34.783Z,52.60
2023-03-02T16:01:07.307Z,52.90
2023-03-02T16:03:34.905Z,53.20
2023-03-02T16:06:03.828Z,53.40
2023-03-02T16:08:31.329Z,53.90
2023-03-02T16:10:59.757Z,54.60
2023-03-02T16:13:27.602Z,54.70
2023-03-02T16:15:54.950Z,55.10
2023-03-02T16:18:22.983Z,55.20
2023-03-02T16:20:50.408Z,55.30
2023-03-02T16:23:19.146Z,55.50
2023-03-02T16:25:49.988Z,55.60
2023-03-02T16:28:19.461Z,56.10
2023-03-02T16:30:47.524Z,56.30
2023-03-02T16:33:17.211Z,56.50
2023-03-02T16:35:44.929Z,56.70
2023-03-02T16:38:12.323Z,57.10
2023-03-02T16:40:41.061Z,57.10
2023-03-02T16:43:10.734Z,57.50
2023-03-02T16:45:38.242Z,57.60
2023-03-02T16:48:06.652Z,58.10
2023-03-02T16:50:34.160Z,58.60
2023-03-02T16:53:01.888Z,58.70
2023-03-02T16:55:29.688Z,59.00
2023-03-02T16:57:58.361Z,59.10
2023-03-02T17:00:26.999Z,59.80
2023-03-02T17:02:54.450Z,59.90
2023-03-02T17:05:22.238Z,60.10
2023-03-02T17:07:49.747Z,60.30
2023-03-02T17:10:20.713Z,60.70
2023-03-02T17:12:47.933Z,60.80
2023-03-02T17:15:16.612Z,60.70
2023-03-02T17:17:44.206Z,61.20
2023-03-02T17:20:12.963Z,61.90
2023-03-02T17:22:40.246Z,61.70
2023-03-02T17:25:08.891Z,61.80
2023-03-02T17:27:36.168Z,61.90
2023-03-02T17:30:04.526Z,62.20
2023-03-02T17:32:33.129Z,63.20
2023-03-02T17:35:00.370Z,63.20
2023-03-02T17:37:29.919Z,63.00
2023-03-02T17:39:57.211Z,62.80
2023-03-02T17:42:24.756Z,62.40
2023-03-02T17:44:52.402Z,62.60
2023-03-02T17:47:20.159Z,62.80
2023-03-02T17:49:48.808Z,62.60
2023-03-02T17:52:17.541Z,62.90
2023-03-02T17:54:44.844Z,62.90
2023-03-02T17:57:12.618Z,62.90
2023-03-02T17:59:39.865Z,63.10
2023-03-02T18:02:07.429Z,63.40
2023-03-02T18:04:34.731Z,64.00
2023-03-02T18:07:03.302Z,63.90
2023-03-02T18:09:30.518Z,63.90
2023-03-02T18:11:57.711Z,63.80
2023-03-02T18:14:28.305Z,64.00
2023-03-02T18:16:55.581Z,63.70
2023-03-02T18:19:23.810Z,63.80
2023-03-02T18:21:51.041Z,63.50
2023-03-02T18:24:19.538Z,63.80
2023-03-02T18:26:46.846Z,63.40
2023-03-02T18:29:14.103Z,63.80
2023-03-02T18:31:41.422Z,63.70
2023-03-02T18:34:08.652Z,64.40
2023-03-02T18:36:35.948Z,65.00
2023-03-02T18:39:04.046Z,65.40
2023-03-02T18:41:32.652Z,65.60
2023-03-02T18:44:01.257Z,65.50
2023-03-02T18:46:30.317Z,65.80
2023-03-02T18:49:00.419Z,65.50
2023-03-02T18:51:28.023Z,65.50
2023-03-02T18:53:55.837Z,65.80
2023-03-02T18:56:23.473Z,66.20
2023-03-02T18:58:52.056Z,65.80
2023-03-02T19:01:19.698Z,65.80
2023-03-02T19:03:46.986Z,65.90
2023-03-02T19:06:14.530Z,65.70
2023-03-02T19:08:41.794Z,65.50
2023-03-02T19:11:09.096Z,65.60
2023-03-02T19:13:36.356Z,65.60
2023-03-02T19:16:05.989Z,65.80
2023-03-02T19:18:34.235Z,65.60
2023-03-02T19:21:01.645Z,65.40
2023-03-02T19:23:29.134Z,65.70
2023-03-02T19:25:56.365Z,65.40
2023-03-02T19:28:23.660Z,65.30
2023-03-02T19:30:51.464Z,65.70
2023-03-02T19:33:20.042Z,65.50
2023-03-02T19:35:47.283Z,65.60
2023-03-02T19:38:14.525Z,65.70
2023-03-02T19:40:41.799Z,66.00
2023-03-02T19:43:09.053Z,66.10
2023-03-02T19:45:37.509Z,66.20
2023-03-02T19:48:05.764Z,65.80
2023-03-02T19:50:34.525Z,65.80
2023-03-02T19:53:02.289Z,66.30
2023-03-02T19:55:29.603Z,66.30
2023-03-02T19:57:59.844Z,66.30
2023-03-02T20:00:29.087Z,66.60
2023-03-02T20:02:56.637Z,66.80
2023-03-02T20:05:25.875Z,66.90
2023-03-02T20:07:54.486Z,67.50
2023-03-02T20:10:27.750Z,67.00
2023-03-02T20:12:54.930Z,67.00
2023-03-02T20:15:22.175Z,66.20
2023-03-02T20:17:49.401Z,66.10
2023-03-02T20:20:16.725Z,66.30
2023-03-02T20:22:45.422Z,66.80
2023-03-02T20:25:14.473Z,66.40
2023-03-02T20:27:41.929Z,66.80
2023-03-02T20:30:13.942Z,66.60
2023-03-02T20:32:42.204Z,66.50
2023-03-02T20:35:09.589Z,66.60
2023-03-02T20:37:37.431Z,66.80
2023-03-02T20:40:05.651Z,66.90
2023-03-02T20:42:35.963Z,66.90
2023-03-02T20:45:05.017Z,66.80
2023-03-02T20:47:32.345Z,67.70
2023-03-02T20:49:59.948Z,68.00
2023-03-02T20:52:27.347Z,68.00
2023-03-02T20:54:54.585Z,68.10
2023-03-02T20:57:22.294Z,67.40
2023-03-02T20:59:50.905Z,67.60
2023-03-02T21:02:19.417Z,67.90
2023-03-02T21:04:47.264Z,68.00
2023-03-02T21:07:15.163Z,68.10
2023-03-02T21:09:42.634Z,68.20
2023-03-02T21:12:11.766Z,68.00
2023-03-02T21:14:40.011Z,67.60
2023-03-02T21:17:09.499Z,68.00
2023-03-02T21:19:37.396Z,68.00
2023-03-02T21:22:04.640Z,68.10
2023-03-02T21:24:31.884Z,68.20
2023-03-02T21:27:01.238Z,68.70
2023-03-02T21:29:29.039Z,69.20
2023-03-02T21:31:56.343Z,69.00
2023-03-02T21:34:24.933Z,69.00
2023-03-02T21:36:53.713Z,69.00
2023-03-02T21:39:23.504Z,68.90
2023-03-02T21:41:51.818Z,68.80
2023-03-02T21:44:19.698Z,68.70
2023-03-02T21:46:47.304Z,68.80
2023-03-02T21:49:16.208Z,69.10
2023-03-02T21:51:45.371Z,69.00
2023-03-02T21:54:12.852Z,69.60
2023-03-02T21:56:40.078Z,69.60
2023-03-02T21:59:07.255Z,69.00
2023-03-02T22:01:34.502Z,68.70
2023-03-02T22:04:01.750Z,68.30
2023-03-02T22:06:30.883Z,68.90
2023-03-02T22:08:59.681Z,68.70
2023-03-02T22:11:28.867Z,68.80
2023-03-02T22:13:58.358Z,68.80
2023-03-02T22:16:27.145Z,68.30
2023-03-02T22:18:56.357Z,68.60
2023-03-02T22:21:30.185Z,68.20
2023-03-02T22:24:09.699Z,68.10
2023-03-02T22:26:39.180Z,67.80
2023-03-02T22:29:14.224Z,67.80
2023-03-02T22:31:45.862Z,67.70
2023-03-02T22:34:15.161Z,67.80
2023-03-02T22:36:42.607Z,67.70
2023-03-02T22:39:17.700Z,67.80
2023-03-02T22:41:44.985Z,67.70
2023-03-02T22:44:13.636Z,68.10
2023-03-02T22:46:41.387Z,67.60
2023-03-02T22:49:17.296Z,67.30
2023-03-02T22:51:45.050Z,67.30
2023-03-02T22:54:21.692Z,67.70
2023-03-02T22:56:50.739Z,67.60
2023-03-02T22:59:22.499Z,67.30
2023-03-02T23:01:50.512Z,67.30
2023-03-02T23:04:20.758Z,67.80
2023-03-02T23:06:50.077Z,67.50
2023-03-02T23:09:21.603Z,67.30
2023-03-02T23:11:49.679Z,67.40
2023-03-02T23:14:23.814Z,67.30
2023-03-02T23:16:55.265Z,67.00
2023-03-02T23:19:22.505Z,67.20
2023-03-02T23:21:50.057Z,67.20
2023-03-02T23:24:20.693Z,66.90
2023-03-02T23:26:49.401Z,67.00
2023-03-02T23:29:17.363Z,66.70
2023-03-02T23:31:44.978Z,66.70
2023-03-02T23:34:13.085Z,66.50
2023-03-02T23:36:41.089Z,66.50
2023-03-02T23:39:09.292Z,66.80
2023-03-02T23:41:38.841Z,67.20
2023-03-02T23:44:06.742Z,67.10
2023-03-02T23:46:33.983Z,67.00
2023-03-02T23:49:01.430Z,67.00
2023-03-02T23:51:28.684Z,67.10
2023-03-02T23:53:56.043Z,67.20
2023-03-02T23:56:24.130Z,67.30
2023-03-02T23:58:52.705Z,67.30
